createdAt,value
2018-07-22T00:00:21.057Z,19.40
2018-07-22T00:02:49.480Z,19.40
2018-07-22T00:05:18.009Z,19.40
2018-07-22T00:07:46.487Z,19.30
2018-07-22T00:10:22.105Z,19.30
2018-07-22T00:12:51.187Z,19.30
2018-07-22T00:15:20.058Z,19.30
2018-07-22T00:17:48.560Z,19.20
2018-07-22T00:20:17.261Z,19.20
2018-07-22T00:22:45.959Z,19.20
2018-07-22T00:25:14.816Z,19.10
2018-07-22T00:27:43.390Z,19.10
2018-07-22T00:30:11.822Z,19.10
2018-07-22T00:32:42.572Z,19.10
2018-07-22T00:35:12.577Z,19.10
2018-07-22T00:37:41.524Z,19.10
2018-07-22T00:40:12.526Z,19.10
2018-07-22T00:42:40.984Z,19.10
2018-07-22T00:45:13.042Z,19.10
2018-07-22T00:47:42.149Z,19.10
2018-07-22T00:52:40.125Z,19.10
2018-07-22T00:55:08.625Z,19.10
2018-07-22T00:57:37.173Z,19.10
2018-07-22T01:00:06.314Z,19.10
2018-07-22T01:02:34.709Z,19.10
2018-07-22T01:05:03.237Z,19.00
2018-07-22T01:07:31.705Z,19.00
2018-07-22T01:10:00.158Z,19.00
2018-07-22T01:12:28.731Z,19.00
2018-07-22T01:14:57.279Z,19.00
2018-07-22T01:17:25.781Z,19.00
2018-07-22T01:19:54.451Z,19.10
2018-07-22T01:22:22.949Z,19.00
2018-07-22T01:24:51.418Z,19.10
2018-07-22T01:27:20.010Z,19.10
2018-07-22T01:29:48.401Z,19.10
2018-07-22T01:32:16.935Z,19.10
2018-07-22T01:34:45.425Z,19.10
2018-07-22T01:37:14.636Z,19.10
2018-07-22T01:39:43.106Z,19.10
2018-07-22T01:44:39.712Z,19.10
2018-07-22T01:47:08.280Z,19.00
2018-07-22T01:49:36.781Z,19.00
2018-07-22T01:52:05.274Z,19.00
2018-07-22T01:54:33.735Z,19.00
2018-07-22T01:57:02.266Z,19.00
2018-07-22T01:59:30.724Z,19.00
2018-07-22T02:01:59.262Z,19.00
2018-07-22T02:04:27.693Z,18.90
2018-07-22T02:09:24.436Z,18.90
2018-07-22T02:11:53.021Z,19.00
2018-07-22T02:14:21.686Z,18.90
2018-07-22T02:16:50.154Z,18.90
2018-07-22T02:19:18.697Z,18.90
2018-07-22T02:21:47.221Z,18.90
2018-07-22T02:24:15.790Z,18.80
2018-07-22T02:26:44.303Z,18.80
2018-07-22T02:29:13.068Z,18.80
2018-07-22T02:31:41.517Z,18.80
2018-07-22T02:34:10.027Z,18.80
2018-07-22T02:36:38.553Z,18.80
2018-07-22T02:39:09.077Z,18.70
2018-07-22T02:41:37.545Z,18.70
2018-07-22T02:44:06.030Z,18.70
2018-07-22T02:46:34.659Z,18.70
2018-07-22T02:49:03.153Z,18.70
2018-07-22T02:51:31.832Z,18.60
2018-07-22T02:54:00.278Z,18.60
2018-07-22T02:56:29.450Z,18.60
2018-07-22T02:58:58.066Z,18.50
2018-07-22T03:01:27.376Z,18.60
2018-07-22T03:03:55.875Z,18.50
2018-07-22T03:06:24.469Z,18.50
2018-07-22T03:08:53.089Z,18.50
2018-07-22T03:11:21.582Z,18.50
2018-07-22T03:13:50.078Z,18.50
2018-07-22T03:16:18.522Z,18.50
2018-07-22T03:18:47.063Z,18.40
2018-07-22T03:21:15.580Z,18.40
2018-07-22T03:23:44.060Z,18.40
2018-07-22T03:26:13.342Z,18.40
2018-07-22T03:28:41.938Z,18.40
2018-07-22T03:31:10.430Z,18.30
2018-07-22T03:36:07.777Z,18.30
2018-07-22T03:38:36.255Z,18.30
2018-07-22T03:41:05.500Z,18.20
2018-07-22T03:43:33.967Z,18.20
2018-07-22T03:46:02.459Z,18.20
2018-07-22T03:48:30.970Z,18.20
2018-07-22T03:50:59.462Z,18.20
2018-07-22T03:53:27.945Z,18.20
2018-07-22T03:55:56.430Z,18.10
2018-07-22T03:58:24.928Z,18.10
2018-07-22T04:00:53.438Z,18.10
2018-07-22T04:03:21.951Z,18.10
2018-07-22T04:05:50.408Z,18.00
2018-07-22T04:08:18.960Z,18.10
2018-07-22T04:13:15.594Z,18.00
2018-07-22T04:15:44.039Z,18.00
2018-07-22T04:18:12.501Z,18.00
2018-07-22T04:20:41.077Z,18.10
2018-07-22T04:23:09.547Z,18.10
2018-07-22T04:25:38.018Z,18.10
2018-07-22T04:28:06.571Z,18.10
2018-07-22T04:33:03.253Z,18.00
2018-07-22T04:35:31.752Z,18.10
2018-07-22T04:38:00.284Z,18.10
2018-07-22T04:40:29.457Z,18.10
2018-07-22T04:42:58.013Z,18.10
2018-07-22T04:45:26.494Z,18.20
2018-07-22T04:47:54.976Z,18.20
2018-07-22T04:50:23.497Z,18.30
2018-07-22T04:52:52.045Z,18.30
2018-07-22T04:55:20.556Z,18.40
2018-07-22T04:57:49.016Z,18.50
2018-07-22T05:00:17.473Z,18.50
2018-07-22T05:02:45.992Z,18.50
2018-07-22T05:05:14.494Z,18.60
2018-07-22T05:07:42.982Z,18.60
2018-07-22T05:10:11.476Z,18.60
2018-07-22T05:12:39.977Z,18.70
2018-07-22T05:15:08.590Z,18.70
2018-07-22T05:17:37.133Z,18.70
2018-07-22T05:20:05.620Z,18.70
2018-07-22T05:22:34.106Z,18.80
2018-07-22T05:25:02.630Z,18.80
2018-07-22T05:27:31.064Z,18.80
2018-07-22T05:29:59.565Z,18.80
2018-07-22T05:32:28.084Z,18.90
2018-07-22T05:34:56.652Z,18.90
2018-07-22T05:37:25.140Z,19.00
2018-07-22T05:42:21.767Z,19.00
2018-07-22T05:44:50.802Z,19.10
2018-07-22T05:47:19.339Z,19.20
2018-07-22T05:49:47.840Z,19.30
2018-07-22T05:52:16.971Z,19.40
2018-07-22T05:54:45.698Z,19.50
2018-07-22T05:57:14.263Z,19.60
2018-07-22T05:59:42.776Z,19.80
2018-07-22T06:02:11.269Z,20.10
2018-07-22T06:04:39.737Z,20.20
2018-07-22T06:07:09.243Z,20.40
2018-07-22T06:09:37.737Z,20.40
2018-07-22T06:12:06.365Z,20.40
2018-07-22T06:14:34.915Z,20.50
2018-07-22T06:17:03.473Z,20.60
2018-07-22T06:19:32.069Z,20.70
2018-07-22T06:22:00.567Z,21.00
2018-07-22T06:24:29.162Z,21.20
2018-07-22T06:29:25.868Z,21.50
2018-07-22T06:31:54.422Z,21.50
2018-07-22T06:34:22.935Z,21.60
2018-07-22T06:36:51.456Z,21.70
2018-07-22T06:39:19.918Z,21.90
2018-07-22T06:41:48.390Z,22.00
2018-07-22T06:44:17.218Z,22.00
2018-07-22T06:46:45.940Z,22.00
2018-07-22T06:49:15.219Z,22.10
2018-07-22T06:51:43.819Z,22.30
2018-07-22T06:54:12.399Z,22.50
2018-07-22T06:56:40.937Z,22.70
2018-07-22T07:04:05.864Z,23.40
2018-07-22T07:06:34.394Z,23.60
2018-07-22T07:09:03.003Z,23.80
2018-07-22T07:11:31.597Z,24.10
2018-07-22T07:14:00.179Z,24.30
2018-07-22T07:16:28.842Z,24.60
2018-07-22T07:18:57.319Z,24.80
2018-07-22T07:21:25.879Z,25.00
2018-07-22T07:23:54.448Z,25.10
2018-07-22T07:26:22.976Z,25.20
2018-07-22T07:28:53.210Z,25.20
2018-07-22T07:31:21.703Z,25.20
2018-07-22T07:33:50.156Z,25.20
2018-07-22T07:36:18.671Z,25.20
2018-07-22T07:38:47.248Z,25.30
2018-07-22T07:41:15.746Z,25.30
2018-07-22T07:43:44.369Z,25.50
2018-07-22T07:46:12.914Z,25.80
2018-07-22T07:48:42.118Z,26.20
2018-07-22T07:51:10.765Z,26.50
2018-07-22T07:53:39.710Z,26.70
2018-07-22T07:56:08.185Z,26.90
2018-07-22T07:58:37.289Z,27.10
2018-07-22T08:01:05.834Z,27.10
2018-07-22T08:03:34.338Z,27.00
2018-07-22T08:06:02.828Z,26.80
2018-07-22T08:08:31.719Z,26.70
2018-07-22T08:11:00.326Z,26.70
2018-07-22T08:13:28.995Z,26.70
2018-07-22T08:15:57.767Z,26.60
2018-07-22T08:18:26.956Z,26.50
2018-07-22T08:20:55.548Z,26.60
2018-07-22T08:23:24.084Z,26.70
2018-07-22T08:25:52.843Z,26.90
2018-07-22T08:28:32.607Z,27.00
2018-07-22T08:31:01.164Z,27.10
2018-07-22T08:33:29.821Z,27.20
2018-07-22T08:35:58.356Z,27.40
2018-07-22T08:38:27.577Z,27.40
2018-07-22T08:45:53.223Z,27.60
2018-07-22T08:48:21.709Z,28.00
2018-07-22T08:50:50.316Z,28.40
2018-07-22T08:53:18.900Z,28.60
2018-07-22T08:55:47.419Z,28.90
2018-07-22T08:58:15.858Z,29.20
2018-07-22T09:00:44.318Z,29.50
2018-07-22T09:03:12.969Z,29.70
2018-07-22T09:05:41.480Z,30.00
2018-07-22T09:08:10.112Z,30.30
2018-07-22T09:10:38.545Z,30.50
2018-07-22T09:13:07.034Z,30.60
2018-07-22T09:15:35.586Z,30.80
2018-07-22T09:18:04.134Z,31.00
2018-07-22T09:20:32.610Z,31.10
2018-07-22T09:23:01.216Z,31.20
2018-07-22T09:25:29.733Z,31.40
2018-07-22T09:27:58.317Z,31.70
2018-07-22T09:30:26.917Z,31.70
2018-07-22T09:32:55.500Z,31.90
2018-07-22T09:35:24.100Z,32.20
2018-07-22T09:37:52.626Z,32.30
2018-07-22T09:40:21.215Z,32.40
2018-07-22T09:42:50.001Z,32.70
2018-07-22T09:45:18.518Z,33.00
2018-07-22T09:47:47.066Z,33.30
2018-07-22T09:50:15.575Z,33.40
2018-07-22T09:52:43.990Z,33.80
2018-07-22T09:55:12.505Z,34.00
2018-07-22T09:57:40.986Z,34.00
2018-07-22T10:00:09.478Z,33.80
2018-07-22T10:02:38.009Z,34.00
2018-07-22T10:05:06.521Z,34.10
2018-07-22T10:07:35.016Z,34.10
2018-07-22T10:10:03.465Z,34.00
2018-07-22T10:12:31.985Z,34.10
2018-07-22T10:15:00.473Z,34.20
2018-07-22T10:17:29.070Z,34.20
2018-07-22T10:19:57.500Z,34.40
2018-07-22T10:22:25.999Z,34.60
2018-07-22T10:24:54.457Z,34.70
2018-07-22T10:27:22.991Z,34.80
2018-07-22T10:29:51.501Z,35.00
2018-07-22T10:32:20.169Z,35.40
2018-07-22T10:34:49.595Z,35.40
2018-07-22T10:37:18.097Z,35.50
2018-07-22T10:39:46.561Z,35.40
2018-07-22T10:42:15.121Z,35.40
2018-07-22T10:44:43.692Z,35.70
2018-07-22T10:47:12.239Z,35.80
2018-07-22T10:49:40.861Z,36.00
2018-07-22T10:52:09.364Z,36.10
2018-07-22T10:54:37.896Z,36.30
2018-07-22T10:57:06.485Z,36.40
2018-07-22T10:59:35.177Z,36.60
2018-07-22T11:02:03.648Z,36.60
